createdAt,value
2023-03-02T00:06:52.801Z,2.61
2023-03-02T00:16:56.306Z,2.29
2023-03-02T00:27:00.147Z,2.54
2023-03-02T00:37:02.609Z,2.32
2023-03-02T00:47:06.541Z,2.30
2023-03-02T00:57:08.985Z,2.53
2023-03-02T01:07:14.801Z,2.25
2023-03-02T01:17:17.662Z,2.43
2023-03-02T01:27:22.194Z,2.18
2023-03-02T01:37:24.780Z,2.22
2023-03-02T01:47:33.180Z,2.50
2023-03-02T01:57:43.415Z,2.49
2023-03-02T02:07:47.451Z,2.43
2023-03-02T02:17:50.048Z,2.31
2023-03-02T02:27:53.941Z,2.35
2023-03-02T02:37:58.348Z,2.28
2023-03-02T02:48:02.191Z,2.37
2023-03-02T02:58:22.163Z,2.28
2023-03-02T03:08:50.349Z,2.18
2023-03-02T03:18:53.702Z,1.95
2023-03-02T03:28:58.242Z,2.14
2023-03-02T03:39:01.270Z,2.28
2023-03-02T03:49:05.141Z,2.20
2023-03-02T03:59:08.490Z,2.27
2023-03-02T04:09:12.786Z,2.35
2023-03-02T04:19:17.437Z,2.07
2023-03-02T04:29:21.232Z,1.81
2023-03-02T04:39:23.707Z,2.23
2023-03-02T04:49:27.651Z,2.13
2023-03-02T04:59:30.159Z,2.37
2023-03-02T05:09:34.350Z,1.80
2023-03-02T05:19:37.406Z,2.08
2023-03-02T05:29:41.174Z,1.96
2023-03-02T05:39:43.595Z,2.23
2023-03-02T05:49:47.453Z,2.33
2023-03-02T05:59:50.890Z,2.38
2023-03-02T06:09:54.624Z,2.40
2023-03-02T06:19:57.119Z,2.36
2023-03-02T06:30:00.925Z,2.34
2023-03-02T06:40:04.175Z,2.40
2023-03-02T06:50:08.742Z,2.34
2023-03-02T07:00:17.266Z,2.54
2023-03-02T07:10:21.117Z,2.69
2023-03-02T07:20:23.603Z,2.59
2023-03-02T07:30:27.342Z,2.96
2023-03-02T07:40:29.862Z,3.03
2023-03-02T07:50:33.741Z,3.31
2023-03-02T08:00:36.679Z,3.48
2023-03-02T08:10:40.603Z,3.53
2023-03-02T08:20:43.043Z,3.78
2023-03-02T08:30:46.858Z,3.66
2023-03-02T08:40:49.311Z,3.99
2023-03-02T08:51:00.110Z,3.78
2023-03-02T09:01:02.663Z,4.23
2023-03-02T09:11:06.671Z,4.56
2023-03-02T09:21:09.177Z,4.69
2023-03-02T09:31:14.744Z,4.62
2023-03-02T09:41:29.198Z,4.83
2023-03-02T09:51:37.397Z,4.98
2023-03-02T10:01:41.799Z,5.34
2023-03-02T10:11:51.349Z,5.43
2023-03-02T10:21:59.127Z,5.32
2023-03-02T10:32:07.397Z,5.88
2023-03-02T10:42:14.307Z,6.12
2023-03-02T10:52:19.414Z,6.13
2023-03-02T11:02:23.748Z,5.82
2023-03-02T11:12:27.699Z,5.96
2023-03-02T11:22:34.951Z,6.11
2023-03-02T11:32:44.178Z,6.38
2023-03-02T11:42:46.931Z,6.49
2023-03-02T11:52:52.772Z,6.47
2023-03-02T12:03:06.143Z,6.75
2023-03-02T12:13:16.341Z,6.95
2023-03-02T12:23:23.840Z,6.69
2023-03-02T12:33:28.067Z,7.30
2023-03-02T12:43:32.261Z,7.53
2023-03-02T12:53:37.367Z,7.33
2023-03-02T13:03:46.625Z,7.89
2023-03-02T13:13:50.711Z,7.69
2023-03-02T13:23:53.172Z,8.14
2023-03-02T13:33:57.716Z,8.14
2023-03-02T13:44:01.176Z,8.07
2023-03-02T13:54:06.963Z,9.03
2023-03-02T14:04:10.734Z,9.99
2023-03-02T14:14:17.183Z,10.24
2023-03-02T14:24:19.613Z,9.60
2023-03-02T14:34:23.728Z,10.22
2023-03-02T14:44:26.187Z,10.25
2023-03-02T14:54:36.064Z,9.93
2023-03-02T15:04:38.611Z,9.82
2023-03-02T15:14:42.508Z,9.26
2023-03-02T15:24:45.209Z,9.49
2023-03-02T15:34:49.495Z,9.26
2023-03-02T15:44:51.955Z,8.79
2023-03-02T15:54:55.770Z,8.33
2023-03-02T16:04:58.248Z,7.83
2023-03-02T16:15:02.162Z,7.48
2023-03-02T16:25:04.873Z,7.28
2023-03-02T16:35:09.918Z,6.86
2023-03-02T16:45:12.837Z,6.60
2023-03-02T16:55:17.833Z,6.45
2023-03-02T17:05:21.372Z,6.31
2023-03-02T17:15:25.246Z,5.99
2023-03-02T17:25:28.236Z,5.99
2023-03-02T17:35:32.094Z,5.83
2023-03-02T17:45:36.002Z,5.78
2023-03-02T17:55:39.944Z,5.64
2023-03-02T18:05:42.391Z,5.46
2023-03-02T18:15:46.232Z,5.42
2023-03-02T18:25:49.084Z,5.37
2023-03-02T18:35:52.861Z,5.26
2023-03-02T18:45:56.799Z,5.19
2023-03-02T18:56:00.720Z,5.07
2023-03-02T19:06:03.618Z,4.95
2023-03-02T19:16:07.932Z,4.81
2023-03-02T19:26:12.923Z,4.63
2023-03-02T19:36:16.811Z,4.66
2023-03-02T19:46:20.433Z,4.51
2023-03-02T19:56:27.144Z,4.49
2023-03-02T20:06:31.443Z,4.47
2023-03-02T20:27:38.068Z,4.11
2023-03-02T20:37:40.898Z,4.05
2023-03-02T20:47:49.659Z,3.97
2023-03-02T20:57:52.153Z,3.89
2023-03-02T21:07:56.939Z,3.97
2023-03-02T21:17:59.806Z,3.99
2023-03-02T21:28:10.187Z,4.08
2023-03-02T21:38:12.843Z,4.13
2023-03-02T21:48:23.031Z,4.00
2023-03-02T21:58:25.852Z,4.21
2023-03-02T22:08:29.692Z,4.23
2023-03-02T22:18:32.293Z,4.09
2023-03-02T22:28:40.911Z,4.18
2023-03-02T22:38:43.478Z,4.15
2023-03-02T22:48:48.615Z,4.15
2023-03-02T22:58:52.200Z,4.11
2023-03-02T23:08:57.283Z,4.05
2023-03-02T23:19:00.193Z,4.20
2023-03-02T23:29:04.441Z,4.13
2023-03-02T23:39:07.148Z,4.63
2023-03-02T23:49:10.969Z,4.35
2023-03-02T23:59:13.512Z,4.24
